createdAt,value
2023-03-25T00:02:16.944Z,64.00
2023-03-25T00:04:56.326Z,64.00
2023-03-25T00:07:33.756Z,64.10
2023-03-25T00:10:09.515Z,64.30
2023-03-25T00:12:46.533Z,64.00
2023-03-25T00:15:23.913Z,64.10
2023-03-25T00:17:59.125Z,64.00
2023-03-25T00:20:35.473Z,64.10
2023-03-25T00:23:11.974Z,64.30
2023-03-25T00:25:47.734Z,64.40
2023-03-25T00:28:23.521Z,64.30
2023-03-25T00:31:02.931Z,64.20
2023-03-25T00:33:38.561Z,65.00
2023-03-25T00:36:16.253Z,64.70
2023-03-25T00:38:54.310Z,64.00
2023-03-25T00:41:30.123Z,65.20
2023-03-25T00:44:06.800Z,64.80
2023-03-25T00:46:43.904Z,64.70
2023-03-25T00:49:19.357Z,63.90
2023-03-25T00:51:56.909Z,64.40
2023-03-25T00:54:32.330Z,64.50
2023-03-25T00:57:07.614Z,64.30
2023-03-25T00:59:43.100Z,64.70
2023-03-25T01:02:23.211Z,64.20
2023-03-25T01:04:59.281Z,63.90
2023-03-25T01:07:35.411Z,64.00
2023-03-25T01:10:11.962Z,64.20
2023-03-25T01:12:47.587Z,64.30
2023-03-25T01:15:23.600Z,64.40
2023-03-25T01:18:00.661Z,65.10
2023-03-25T01:20:36.179Z,65.80
2023-03-25T01:23:13.044Z,65.50
2023-03-25T01:25:49.466Z,65.10
2023-03-25T01:28:24.723Z,65.20
2023-03-25T01:31:05.812Z,64.80
2023-03-25T01:33:43.957Z,65.10
2023-03-25T01:36:20.178Z,64.80
2023-03-25T01:38:56.569Z,64.50
2023-03-25T01:41:42.741Z,64.60
2023-03-25T01:44:53.485Z,64.20
2023-03-25T01:47:30.053Z,64.60
2023-03-25T01:50:07.380Z,65.10
2023-03-25T01:52:43.440Z,64.50
2023-03-25T01:55:21.938Z,65.00
2023-03-25T01:58:01.219Z,65.50
2023-03-25T02:00:37.016Z,65.20
2023-03-25T02:03:13.031Z,64.60
2023-03-25T02:05:57.706Z,64.00
2023-03-25T02:08:35.361Z,64.20
2023-03-25T02:11:10.932Z,63.70
2023-03-25T02:13:47.229Z,63.50
2023-03-25T02:16:37.428Z,63.20
2023-03-25T02:19:59.200Z,63.20
2023-03-25T02:23:05.077Z,62.50
2023-03-25T02:26:14.339Z,61.10
2023-03-25T02:28:52.978Z,61.10
2023-03-25T02:31:54.060Z,61.80
2023-03-25T02:34:53.269Z,61.60
2023-03-25T02:38:07.991Z,61.00
2023-03-25T02:40:53.817Z,60.40
2023-03-25T02:43:36.003Z,60.60
2023-03-25T02:46:14.155Z,60.00
2023-03-25T02:48:57.873Z,60.00
2023-03-25T02:51:36.105Z,60.00
2023-03-25T02:54:17.228Z,60.00
2023-03-25T02:56:59.092Z,60.40
2023-03-25T02:59:39.918Z,60.80
2023-03-25T03:02:15.882Z,60.50
2023-03-25T03:04:53.676Z,61.20
2023-03-25T03:07:32.211Z,60.70
2023-03-25T03:10:21.090Z,60.30
2023-03-25T03:13:13.352Z,60.00
2023-03-25T03:15:57.507Z,59.50
2023-03-25T03:18:47.896Z,58.50
2023-03-25T03:21:27.343Z,59.10
2023-03-25T03:24:07.641Z,58.80
2023-03-25T03:26:46.767Z,59.40
2023-03-25T03:29:27.500Z,59.80
2023-03-25T03:32:07.394Z,59.60
2023-03-25T03:34:50.429Z,60.30
2023-03-25T03:37:30.512Z,60.50
2023-03-25T03:40:07.723Z,60.30
2023-03-25T03:42:48.673Z,60.60
2023-03-25T03:45:29.652Z,60.70
2023-03-25T03:48:07.765Z,60.60
2023-03-25T03:50:46.778Z,60.60
2023-03-25T03:53:27.689Z,60.80
2023-03-25T03:56:07.248Z,60.10
2023-03-25T03:58:46.588Z,60.50
2023-03-25T04:01:31.975Z,60.30
2023-03-25T04:04:09.884Z,60.10
2023-03-25T04:06:49.313Z,60.20
2023-03-25T04:09:30.840Z,60.50
2023-03-25T04:12:11.567Z,60.10
2023-03-25T04:14:48.512Z,60.80
2023-03-25T04:17:25.803Z,60.80
2023-03-25T04:20:01.449Z,61.10
2023-03-25T04:22:36.701Z,60.90
2023-03-25T04:25:13.711Z,60.50
2023-03-25T04:27:51.063Z,60.70
2023-03-25T04:30:27.643Z,60.80
2023-03-25T04:33:04.665Z,60.60
2023-03-25T04:35:40.634Z,60.80
2023-03-25T04:38:19.964Z,60.60
2023-03-25T04:41:08.860Z,61.00
2023-03-25T04:43:49.725Z,61.50
2023-03-25T04:46:26.093Z,61.50
2023-03-25T04:49:05.283Z,61.50
2023-03-25T04:51:43.554Z,61.50
2023-03-25T04:54:18.877Z,61.50
2023-03-25T04:56:56.858Z,61.80
2023-03-25T04:59:32.428Z,62.30
2023-03-25T05:02:08.916Z,62.90
2023-03-25T05:04:49.110Z,63.40
2023-03-25T05:07:25.067Z,64.20
2023-03-25T05:10:01.191Z,64.20
2023-03-25T05:12:37.584Z,64.90
2023-03-25T05:15:13.804Z,65.20
2023-03-25T05:17:49.737Z,65.50
2023-03-25T05:20:26.888Z,65.40
2023-03-25T05:23:02.874Z,65.60
2023-03-25T05:25:39.328Z,65.80
2023-03-25T05:28:16.686Z,66.50
2023-03-25T05:30:53.699Z,67.10
2023-03-25T05:33:29.713Z,67.10
2023-03-25T05:36:06.960Z,67.40
2023-03-25T05:38:44.855Z,67.70
2023-03-25T05:41:20.428Z,68.30
2023-03-25T05:43:57.560Z,69.00
2023-03-25T05:46:33.624Z,70.30
2023-03-25T05:49:09.978Z,70.20
2023-03-25T05:51:47.401Z,70.20
2023-03-25T05:54:26.177Z,70.70
2023-03-25T05:57:01.593Z,71.70
2023-03-25T05:59:40.497Z,72.10
2023-03-25T06:02:19.667Z,72.10
2023-03-25T06:04:56.047Z,73.60
2023-03-25T06:07:33.176Z,73.90
2023-03-25T06:10:09.939Z,73.80
2023-03-25T06:12:45.760Z,74.10
2023-03-25T06:15:35.006Z,74.30
2023-03-25T06:18:12.308Z,74.40
2023-03-25T06:20:48.674Z,74.30
2023-03-25T06:23:26.116Z,74.30
2023-03-25T06:26:02.312Z,74.20
2023-03-25T06:28:37.601Z,74.30
2023-03-25T06:31:18.645Z,74.10
2023-03-25T06:33:54.538Z,74.00
2023-03-25T06:36:30.152Z,73.60
2023-03-25T06:39:09.664Z,73.20
2023-03-25T06:41:45.577Z,73.40
2023-03-25T06:44:33.870Z,73.40
2023-03-25T06:47:36.668Z,73.20
2023-03-25T06:50:12.806Z,73.60
2023-03-25T06:52:48.528Z,73.20
2023-03-25T06:55:25.498Z,73.20
2023-03-25T06:58:01.897Z,73.00
2023-03-25T07:00:37.211Z,72.70
2023-03-25T07:03:14.941Z,72.50
2023-03-25T07:05:50.317Z,72.00
2023-03-25T07:08:26.276Z,71.60
2023-03-25T07:11:09.637Z,72.00
2023-03-25T07:13:45.446Z,72.10
2023-03-25T07:16:20.607Z,71.40
2023-03-25T07:18:58.333Z,70.90
2023-03-25T07:21:33.428Z,70.50
2023-03-25T07:24:09.503Z,70.20
2023-03-25T07:26:46.713Z,70.30
2023-03-25T07:29:23.783Z,71.20
2023-03-25T07:31:59.272Z,70.50
2023-03-25T07:34:35.758Z,70.40
2023-03-25T07:37:11.943Z,70.00
2023-03-25T07:39:48.019Z,69.70
2023-03-25T07:42:25.044Z,69.60
2023-03-25T07:45:10.786Z,70.00
2023-03-25T07:47:51.799Z,69.70
2023-03-25T07:50:28.669Z,69.70
2023-03-25T07:53:03.884Z,69.90
2023-03-25T07:55:39.827Z,69.90
2023-03-25T07:58:16.961Z,70.70
2023-03-25T08:00:53.822Z,70.20
2023-03-25T08:03:29.748Z,70.70
2023-03-25T08:06:07.045Z,70.70
2023-03-25T08:08:42.215Z,70.90
2023-03-25T08:11:18.382Z,71.10
2023-03-25T08:13:55.517Z,70.60
2023-03-25T08:16:31.302Z,70.90
2023-03-25T08:19:06.425Z,70.90
2023-03-25T08:21:42.938Z,70.80
2023-03-25T08:24:18.154Z,70.40
2023-03-25T08:26:54.290Z,70.60
2023-03-25T08:29:31.522Z,70.70
2023-03-25T08:35:22.601Z,71.10
2023-03-25T08:37:58.755Z,70.20
2023-03-25T08:40:34.513Z,70.60
2023-03-25T08:43:11.184Z,70.20
2023-03-25T08:45:49.447Z,70.40
2023-03-25T08:48:24.809Z,70.10
2023-03-25T08:51:00.535Z,69.30
2023-03-25T08:53:37.018Z,69.70
2023-03-25T08:56:15.217Z,70.00
2023-03-25T08:58:50.422Z,70.00
2023-03-25T09:01:27.737Z,70.10
2023-03-25T09:04:02.993Z,69.80
2023-03-25T09:06:47.895Z,69.50
2023-03-25T09:09:36.798Z,69.40
2023-03-25T09:12:12.972Z,69.70
2023-03-25T09:14:48.507Z,69.50
2023-03-25T09:17:26.347Z,69.30
2023-03-25T09:20:01.613Z,68.80
2023-03-25T09:22:36.849Z,68.20
2023-03-25T09:25:13.799Z,68.60
2023-03-25T09:27:49.922Z,68.30
2023-03-25T09:30:27.774Z,68.20
2023-03-25T09:33:05.317Z,68.30
2023-03-25T09:35:40.731Z,68.30
2023-03-25T09:38:17.097Z,66.90
2023-03-25T09:40:52.824Z,67.50
2023-03-25T09:43:41.682Z,67.10
2023-03-25T09:46:17.755Z,67.80
2023-03-25T09:48:58.033Z,67.20
2023-03-25T09:51:35.798Z,67.80
2023-03-25T09:54:24.791Z,67.30
2023-03-25T09:57:02.141Z,67.10
2023-03-25T09:59:46.006Z,67.20
2023-03-25T10:02:32.510Z,66.80
2023-03-25T10:05:32.885Z,66.80
2023-03-25T10:08:18.414Z,66.40
2023-03-25T10:11:05.385Z,65.90
2023-03-25T10:13:49.850Z,65.10
2023-03-25T10:16:33.891Z,66.20
2023-03-25T10:19:27.254Z,65.20
2023-03-25T10:22:10.618Z,65.60
2023-03-25T10:24:50.674Z,65.20
2023-03-25T10:27:31.441Z,64.30
2023-03-25T10:30:14.899Z,63.30
2023-03-25T10:32:54.056Z,63.70
2023-03-25T10:35:33.269Z,63.80
2023-03-25T10:38:17.035Z,64.10
2023-03-25T10:40:54.870Z,64.10
2023-03-25T10:43:35.844Z,63.70
2023-03-25T10:46:18.561Z,63.60
2023-03-25T10:48:55.029Z,64.40
2023-03-25T10:51:34.821Z,64.30
2023-03-25T10:54:15.237Z,64.30
2023-03-25T10:56:53.842Z,64.60
2023-03-25T10:59:33.475Z,63.90
2023-03-25T11:02:16.634Z,63.70
2023-03-25T11:04:54.943Z,64.10
2023-03-25T11:07:35.354Z,64.50
2023-03-25T11:10:23.523Z,64.70
2023-03-25T11:13:06.278Z,64.80
2023-03-25T11:15:44.266Z,65.20
2023-03-25T11:18:25.283Z,65.20
2023-03-25T11:21:05.091Z,64.50
2023-03-25T11:23:41.914Z,64.80
2023-03-25T11:26:25.814Z,64.00
2023-03-25T11:29:06.372Z,64.90
2023-03-25T11:31:42.723Z,63.90
2023-03-25T11:34:24.542Z,63.80
2023-03-25T11:37:06.381Z,63.80
2023-03-25T11:39:43.040Z,64.60
2023-03-25T11:42:36.499Z,64.70
2023-03-25T11:45:26.130Z,63.60
2023-03-25T11:48:07.533Z,64.30
2023-03-25T11:50:42.987Z,63.50
2023-03-25T11:53:21.382Z,63.90
2023-03-25T11:55:59.381Z,62.80
2023-03-25T11:58:39.907Z,62.70
2023-03-25T12:01:29.612Z,63.00
2023-03-25T12:04:19.546Z,63.00
2023-03-25T12:07:05.358Z,63.00
2023-03-25T12:09:41.650Z,63.00
2023-03-25T12:12:37.539Z,62.80
2023-03-25T12:15:23.193Z,62.20
2023-03-25T12:18:11.705Z,62.70
2023-03-25T12:21:00.433Z,62.50
2023-03-25T12:23:45.452Z,62.60
2023-03-25T12:26:23.485Z,63.40
2023-03-25T12:29:35.141Z,63.30
2023-03-25T12:32:22.543Z,63.20
2023-03-25T12:35:08.757Z,63.10
2023-03-25T12:37:56.704Z,63.50
2023-03-25T12:40:55.301Z,62.80
2023-03-25T12:43:41.977Z,62.90
2023-03-25T12:46:29.258Z,63.40
2023-03-25T12:49:19.732Z,63.30
2023-03-25T12:52:07.242Z,63.00
2023-03-25T12:54:55.713Z,63.30
2023-03-25T12:57:47.591Z,63.70
2023-03-25T13:00:35.541Z,63.90
2023-03-25T13:03:32.895Z,64.20
2023-03-25T13:06:23.769Z,64.50
2023-03-25T13:09:03.720Z,64.00
2023-03-25T13:11:45.933Z,64.40
2023-03-25T13:14:25.826Z,64.10
2023-03-25T13:17:04.943Z,64.00
2023-03-25T13:19:45.405Z,63.90
2023-03-25T13:22:27.353Z,64.10
2023-03-25T13:25:06.115Z,64.10
2023-03-25T13:27:44.671Z,64.30
2023-03-25T13:30:26.749Z,64.60
2023-03-25T13:33:05.598Z,64.60
2023-03-25T13:35:47.758Z,64.20
2023-03-25T13:38:31.631Z,64.10
2023-03-25T13:41:16.193Z,64.40
2023-03-25T13:44:01.636Z,64.30
2023-03-25T13:46:42.568Z,64.70
2023-03-25T13:49:26.760Z,64.50
2023-03-25T13:52:02.594Z,64.60
2023-03-25T13:54:42.821Z,64.50
2023-03-25T13:58:01.917Z,64.80
2023-03-25T14:01:14.072Z,65.20
2023-03-25T14:04:05.395Z,64.50
2023-03-25T14:07:11.608Z,64.20
2023-03-25T14:10:36.420Z,64.20
2023-03-25T14:13:17.527Z,64.70
2023-03-25T14:16:02.321Z,65.00
2023-03-25T14:18:44.222Z,65.50
2023-03-25T14:21:33.595Z,66.10
2023-03-25T14:24:14.553Z,67.10
2023-03-25T14:26:53.586Z,67.30
2023-03-25T14:29:41.197Z,67.60
2023-03-25T14:32:37.839Z,67.70
2023-03-25T14:35:48.791Z,67.80
2023-03-25T14:38:56.839Z,68.00
2023-03-25T14:42:03.500Z,67.60
2023-03-25T14:44:42.754Z,67.40
2023-03-25T14:47:38.766Z,67.00
2023-03-25T14:50:37.264Z,66.90
2023-03-25T14:53:17.546Z,67.00
2023-03-25T14:55:53.486Z,67.00
2023-03-25T14:58:30.746Z,67.30
2023-03-25T15:01:11.919Z,67.10
2023-03-25T15:03:50.126Z,67.20
2023-03-25T15:06:37.319Z,67.30
2023-03-25T15:09:14.847Z,67.20
2023-03-25T15:11:58.873Z,67.20
2023-03-25T15:14:40.967Z,67.20
2023-03-25T15:17:46.285Z,67.40
2023-03-25T15:20:39.719Z,67.60
2023-03-25T15:23:38.914Z,67.00
2023-03-25T15:26:25.296Z,66.60
2023-03-25T15:29:26.833Z,67.10
2023-03-25T15:32:13.134Z,67.10
2023-03-25T15:35:17.318Z,66.90
2023-03-25T15:38:20.958Z,66.60
2023-03-25T15:41:11.984Z,66.60
2023-03-25T15:44:13.100Z,66.50
2023-03-25T15:47:05.870Z,66.40
2023-03-25T15:50:12.597Z,66.60
2023-03-25T15:53:21.674Z,66.70
2023-03-25T15:56:03.161Z,66.50
2023-03-25T15:58:43.475Z,66.90
2023-03-25T16:01:29.549Z,67.40
2023-03-25T16:04:09.536Z,67.30
2023-03-25T16:06:48.088Z,67.40
2023-03-25T16:09:28.903Z,67.30
2023-03-25T16:12:08.537Z,67.20
2023-03-25T16:14:48.047Z,67.00
2023-03-25T16:17:25.792Z,67.40
2023-03-25T16:20:02.063Z,67.40
2023-03-25T16:22:39.565Z,67.40
2023-03-25T16:25:21.075Z,67.60
2023-03-25T16:27:59.783Z,68.00
2023-03-25T16:30:44.404Z,68.20
2023-03-25T16:33:23.320Z,68.00
2023-03-25T16:36:02.644Z,67.80
2023-03-25T16:38:39.179Z,68.20
2023-03-25T16:41:19.052Z,68.00
2023-03-25T16:43:56.567Z,68.40
2023-03-25T16:46:33.398Z,68.30
2023-03-25T16:49:10.188Z,68.60
2023-03-25T16:51:45.909Z,68.90
2023-03-25T16:54:40.244Z,69.20
2023-03-25T16:57:21.913Z,69.70
2023-03-25T16:59:59.261Z,69.30
2023-03-25T17:02:43.201Z,69.50
2023-03-25T17:05:21.923Z,70.40
2023-03-25T17:08:05.704Z,70.40
2023-03-25T17:10:51.827Z,70.80
2023-03-25T17:13:32.870Z,70.30
2023-03-25T17:16:10.445Z,71.20
2023-03-25T17:18:45.841Z,71.20
2023-03-25T17:21:29.710Z,71.40
2023-03-25T17:24:07.400Z,71.30
2023-03-25T17:27:00.627Z,71.70
2023-03-25T17:29:52.995Z,72.20
2023-03-25T17:32:29.927Z,72.30
2023-03-25T17:35:10.188Z,72.20
2023-03-25T17:37:45.556Z,71.60
2023-03-25T17:40:28.083Z,71.70
2023-03-25T17:43:04.311Z,71.60
2023-03-25T17:45:42.174Z,71.70
2023-03-25T17:48:21.064Z,71.80
2023-03-25T17:50:59.273Z,71.40
2023-03-25T17:53:35.528Z,70.90
2023-03-25T17:56:11.687Z,71.30
2023-03-25T17:58:47.086Z,70.70
2023-03-25T18:01:26.772Z,71.10
2023-03-25T18:04:03.305Z,70.30
2023-03-25T18:06:39.343Z,70.30
2023-03-25T18:09:21.262Z,70.40
2023-03-25T18:11:59.327Z,70.60
2023-03-25T18:14:36.932Z,71.00
2023-03-25T18:17:16.057Z,69.80
2023-03-25T18:19:51.560Z,70.00
2023-03-25T18:22:26.666Z,70.30
2023-03-25T18:25:03.249Z,70.80
2023-03-25T18:27:43.791Z,69.60
2023-03-25T18:30:30.890Z,69.50
2023-03-25T18:33:08.688Z,69.50
2023-03-25T18:35:44.932Z,69.50
2023-03-25T18:38:23.097Z,68.90
2023-03-25T18:40:59.434Z,69.50
2023-03-25T18:43:34.470Z,70.30
2023-03-25T18:46:10.487Z,70.40
2023-03-25T18:48:51.014Z,70.60
2023-03-25T18:51:26.263Z,70.70
2023-03-25T18:54:01.528Z,71.20
2023-03-25T18:56:38.212Z,71.00
2023-03-25T18:59:13.751Z,71.30
2023-03-25T19:01:49.674Z,71.10
2023-03-25T19:04:27.401Z,71.60
2023-03-25T19:07:04.685Z,71.70
2023-03-25T19:09:39.830Z,72.00
2023-03-25T19:12:15.329Z,71.90
2023-03-25T19:14:50.835Z,72.00
2023-03-25T19:17:27.615Z,72.60
2023-03-25T19:20:05.985Z,72.70
2023-03-25T19:22:41.370Z,72.40
2023-03-25T19:25:16.974Z,72.10
2023-03-25T19:27:53.381Z,71.80
2023-03-25T19:30:31.751Z,72.30
2023-03-25T19:33:07.356Z,72.50
2023-03-25T19:35:46.198Z,72.90
2023-03-25T19:38:24.392Z,72.90
2023-03-25T19:41:08.801Z,73.20
2023-03-25T19:43:44.115Z,73.50
2023-03-25T19:46:20.824Z,73.80
2023-03-25T19:48:57.051Z,74.10
2023-03-25T19:51:35.007Z,73.90
2023-03-25T19:54:15.221Z,74.00
2023-03-25T19:56:50.621Z,73.70
2023-03-25T19:59:26.591Z,73.60
2023-03-25T20:02:02.773Z,73.50
2023-03-25T20:04:38.341Z,73.40
2023-03-25T20:07:17.572Z,73.10
2023-03-25T20:09:53.961Z,73.00
2023-03-25T20:12:29.615Z,72.90
2023-03-25T20:15:05.315Z,73.30
2023-03-25T20:17:41.277Z,73.90
2023-03-25T20:20:18.724Z,74.30
2023-03-25T20:22:57.205Z,74.50
2023-03-25T20:25:32.750Z,74.40
2023-03-25T20:28:08.025Z,74.20
2023-03-25T20:30:44.008Z,74.50
2023-03-25T20:33:19.452Z,74.40
2023-03-25T20:35:55.184Z,74.60
2023-03-25T20:38:34.731Z,74.70
2023-03-25T20:41:11.436Z,75.10
2023-03-25T20:43:46.896Z,75.00
2023-03-25T20:46:25.472Z,75.00
2023-03-25T20:49:01.581Z,74.90
2023-03-25T20:51:38.103Z,75.00
2023-03-25T20:54:16.804Z,75.50
2023-03-25T20:56:53.008Z,75.40
2023-03-25T20:59:28.877Z,75.10
2023-03-25T21:02:05.481Z,75.30
2023-03-25T21:04:40.913Z,75.00
2023-03-25T21:07:16.338Z,75.10
2023-03-25T21:09:55.655Z,74.80
2023-03-25T21:12:42.663Z,74.70
2023-03-25T21:15:20.046Z,74.80
2023-03-25T21:17:55.416Z,74.90
2023-03-25T21:20:31.650Z,74.90
2023-03-25T21:23:08.745Z,75.10
2023-03-25T21:25:46.488Z,75.10
2023-03-25T21:28:22.382Z,75.20
2023-03-25T21:31:07.080Z,75.00
2023-03-25T21:33:43.511Z,75.20
2023-03-25T21:36:19.733Z,75.30
2023-03-25T21:38:55.726Z,75.30
2023-03-25T21:41:37.778Z,75.20
2023-03-25T21:44:14.285Z,75.10
2023-03-25T21:46:49.292Z,74.60
2023-03-25T21:49:30.034Z,74.20
2023-03-25T21:52:06.242Z,74.00
2023-03-25T21:54:50.125Z,73.40
2023-03-25T21:57:28.422Z,72.30
2023-03-25T22:00:04.052Z,72.20
2023-03-25T22:02:47.528Z,72.30
2023-03-25T22:05:23.044Z,72.00
2023-03-25T22:07:58.453Z,72.20
2023-03-25T22:10:33.751Z,71.80
2023-03-25T22:13:12.200Z,72.00
2023-03-25T22:15:48.251Z,71.80
2023-03-25T22:18:23.795Z,72.20
2023-03-25T22:21:08.952Z,71.60
2023-03-25T22:23:46.678Z,71.50
2023-03-25T22:26:22.718Z,71.10
2023-03-25T22:29:02.459Z,71.20
2023-03-25T22:31:42.857Z,70.90
2023-03-25T22:34:19.440Z,70.50
2023-03-25T22:36:54.675Z,70.40
2023-03-25T22:39:30.072Z,70.80
2023-03-25T22:42:05.381Z,70.70
2023-03-25T22:44:46.324Z,70.70
2023-03-25T22:47:21.446Z,70.80
2023-03-25T22:49:56.715Z,70.60
2023-03-25T22:52:31.965Z,70.30
2023-03-25T22:55:07.993Z,70.60
2023-03-25T22:57:43.988Z,70.20
2023-03-25T23:00:22.245Z,69.60
2023-03-25T23:02:57.437Z,69.70
2023-03-25T23:05:34.218Z,69.50
2023-03-25T23:08:11.041Z,69.80
2023-03-25T23:10:49.324Z,69.20
2023-03-25T23:13:24.872Z,69.20
2023-03-25T23:16:08.528Z,69.70
2023-03-25T23:18:45.453Z,69.30
2023-03-25T23:21:21.789Z,69.10
2023-03-25T23:23:59.664Z,69.50
2023-03-25T23:26:38.279Z,68.90
2023-03-25T23:29:14.812Z,69.10
2023-03-25T23:31:52.415Z,68.70
2023-03-25T23:34:27.399Z,68.80
2023-03-25T23:37:03.180Z,69.00
2023-03-25T23:39:42.045Z,67.80
2023-03-25T23:42:17.280Z,66.90
2023-03-25T23:44:52.706Z,66.20
2023-03-25T23:47:33.738Z,65.40
2023-03-25T23:50:09.330Z,65.50
2023-03-25T23:52:44.590Z,65.00
2023-03-25T23:55:20.318Z,64.50
2023-03-25T23:57:57.090Z,64.10
